ADDS METAR Data INFO
IDs: Format: Raw Decoded Include TAF

Data at: 0902 UTC 20 Oct 2017

KDNN 200855Z AUTO 00000KT 1 1/2SM BR OVC001 05/05 A3029 RMK AO2
KDNN 200835Z AUTO 00000KT 3/4SM BR OVC001 05/05 A3029 RMK AO2
KDNN 200815Z AUTO 00000KT 3SM BR OVC001 05/05 A3028 RMK AO2
KDNN 200755Z AUTO 00000KT 2 1/2SM BR OVC001 06/06 A3028 RMK AO2
KDNN 200735Z AUTO 00000KT 7SM SCT001 06/06 A3028 RMK AO2
KDNN 200715Z AUTO 00000KT 1 1/2SM BR BKN001 BKN060 06/06 A3029 RMK AO2 VIS 1V5
KDNN 200655Z AUTO 00000KT 10SM CLR 06/06 A3028 RMK AO2
KDNN 200635Z AUTO 00000KT 10SM CLR 06/06 A3028 RMK AO2
KDNN 200615Z AUTO 00000KT 10SM CLR 06/06 A3028 RMK AO2
KDNN 200555Z AUTO 00000KT 10SM CLR 06/06 A3029 RMK AO2
KDNN 200535Z AUTO 00000KT 10SM CLR 07/07 A3029 RMK AO2
KDNN 200515Z AUTO 00000KT 10SM CLR 07/07 A3029 RMK AO2
KDNN 200455Z AUTO 00000KT 10SM CLR 07/07 A3029 RMK AO2
KDNN 200435Z AUTO 00000KT 10SM CLR 07/07 A3029 RMK AO2
KDNN 200415Z AUTO 00000KT 10SM CLR 08/08 A3029 RMK AO2
KDNN 200400Z AUTO 00000KT 10SM CLR 08/08 A3029 RMK AO2
KDNN 200335Z AUTO 00000KT 10SM CLR 08/08 A3029 RMK AO2
KDNN 200320Z AUTO 00000KT 10SM CLR 08/08 A3029 RMK AO2
KDNN 200255Z AUTO 00000KT 10SM CLR 09/09 A3028 RMK AO2
KDNN 200235Z AUTO 00000KT 10SM CLR 09/09 A3028 RMK AO2
KDNN 200215Z AUTO 00000KT 10SM CLR 10/10 A3028 RMK AO2
KDNN 200155Z AUTO 00000KT 10SM CLR 10/10 A3027 RMK AO2
KDNN 200135Z AUTO 00000KT 10SM CLR 10/10 A3028 RMK AO2
KDNN 200115Z AUTO 00000KT 10SM CLR 11/10 A3028 RMK AO2
KDNN 200055Z AUTO 00000KT 10SM CLR 11/11 A3028 RMK AO2
KDNN 200035Z AUTO 00000KT 10SM CLR 12/10 A3027 RMK AO2
KDNN 200015Z AUTO 00000KT 10SM CLR 12/10 A3027 RMK AO2
KDNN 192355Z AUTO 00000KT 10SM CLR 13/10 A3027 RMK AO2
KDNN 192340Z AUTO 00000KT 10SM CLR 14/11 A3026 RMK AO2
KDNN 192315Z AUTO 00000KT 10SM CLR 15/11 A3026 RMK AO2
KDNN 192255Z AUTO 00000KT 10SM CLR 17/10 A3026 RMK AO2
KDNN 192235Z AUTO 00000KT 10SM CLR 20/10 A3026 RMK AO2
KDNN 192215Z AUTO 00000KT 10SM CLR 21/08 A3026 RMK AO2
KDNN 192155Z AUTO 00000KT 10SM CLR 21/07 A3026 RMK AO2
KDNN 192135Z AUTO 01003KT 10SM CLR 21/06 A3026 RMK AO2
KDNN 192115Z AUTO 00000KT 10SM CLR 22/06 A3026 RMK AO2
KDNN 192055Z AUTO 01003KT 10SM CLR 22/07 A3027 RMK AO2
KDNN 192035Z AUTO 32005KT 10SM CLR 22/07 A3027 RMK AO2
KDNN 192015Z AUTO 36003KT 10SM CLR 22/07 A3027 RMK AO2
KDNN 191955Z AUTO 34005KT 10SM CLR 22/07 A3027 RMK AO2
KDNN 191935Z AUTO 34003KT 10SM CLR 22/07 A3028 RMK AO2
KDNN 191915Z AUTO 33003KT 10SM CLR 21/07 A3028 RMK AO2
KDNN 191855Z AUTO 00000KT 10SM CLR 21/07 A3029 RMK AO2
KDNN 191835Z AUTO 34003KT 10SM CLR 21/07 A3030 RMK AO2
KDNN 191815Z AUTO 00000KT 10SM CLR 21/07 A3031 RMK AO2
KDNN 191755Z AUTO 36003KT 10SM CLR 20/07 A3031 RMK AO2
KDNN 191735Z AUTO 00000KT 10SM CLR 20/08 A3032 RMK AO2
KDNN 191715Z AUTO 31003KT 10SM CLR 20/07 A3033 RMK AO2
KDNN 191655Z AUTO 00000KT 10SM CLR 19/07 A3034 RMK AO2
KDNN 191635Z AUTO 00000KT 10SM CLR 18/07 A3036 RMK AO2
KDNN 191615Z AUTO 00000KT 10SM CLR 18/08 A3036 RMK AO2
KDNN 191555Z AUTO 00000KT 10SM CLR 17/09 A3036 RMK AO2
KDNN 191535Z AUTO 00000KT 10SM CLR 16/09 A3036 RMK AO2
KDNN 191515Z AUTO 00000KT 10SM CLR 15/10 A3037 RMK AO2
KDNN 191455Z AUTO 00000KT 10SM CLR 13/10 A3037 RMK AO2
KDNN 191435Z AUTO 00000KT 10SM CLR 12/10 A3037 RMK AO2
KDNN 191415Z AUTO 00000KT 10SM CLR 11/10 A3037 RMK AO2
KDNN 191355Z AUTO 00000KT 10SM CLR 09/08 A3037 RMK AO2
KDNN 191335Z AUTO 00000KT 10SM CLR 08/08 A3036 RMK AO2
KDNN 191315Z AUTO 00000KT 10SM CLR 07/07 A3036 RMK AO2
KDNN 191255Z AUTO 00000KT 10SM CLR 06/06 A3035 RMK AO2
KDNN 191235Z AUTO 00000KT 10SM CLR 05/05 A3034 RMK AO2
KDNN 191215Z AUTO 00000KT 10SM SCT001 SCT050 05/05 A3033 RMK AO2
KDNN 191155Z AUTO 00000KT 10SM SCT001 SCT050 05/05 A3033 RMK AO2
KDNN 191135Z AUTO 00000KT 7SM CLR 05/05 A3033 RMK AO2
KDNN 191115Z AUTO 00000KT 10SM CLR 05/05 A3032 RMK AO2
KDNN 191055Z AUTO 00000KT 10SM CLR 05/05 A3031 RMK AO2
KDNN 191035Z AUTO 00000KT 10SM CLR 05/05 A3031 RMK AO2
KDNN 191015Z AUTO 00000KT 10SM CLR 06/06 A3031 RMK AO2
KDNN 190955Z AUTO 00000KT 10SM CLR 06/06 A3031 RMK AO2
KDNN 190935Z AUTO 00000KT 10SM CLR 06/06 A3031 RMK AO2
KDNN 190915Z AUTO 00000KT 10SM CLR 06/06 A3030 RMK AO2
KDNN 190855Z AUTO 00000KT 10SM CLR 06/06 A3030 RMK AO2
KDNN 190835Z AUTO 00000KT 10SM CLR 06/06 A3030 RMK AO2
KDNN 190815Z AUTO 00000KT 10SM CLR 07/07 A3030 RMK AO2
KDNN 190755Z AUTO 00000KT 10SM CLR 07/07 A3030 RMK AO2
KDNN 190735Z AUTO 00000KT 10SM CLR 07/07 A3030 RMK AO2
KDNN 190715Z AUTO 00000KT 10SM CLR 08/07 A3030 RMK AO2
KDNN 190655Z AUTO 00000KT 10SM CLR 08/08 A3030 RMK AO2
KDNN 190635Z AUTO 00000KT 10SM CLR 08/08 A3030 RMK AO2
KDNN 190620Z AUTO 21003KT 10SM CLR 08/08 A3030 RMK AO2
KDNN 190555Z AUTO 00000KT 10SM CLR 09/08 A3030 RMK AO2
KDNN 190540Z AUTO 21003KT 10SM CLR 09/08 A3030 RMK AO2
KDNN 190515Z AUTO 00000KT 10SM CLR 08/08 A3030 RMK AO2
KDNN 190455Z AUTO 00000KT 10SM CLR 08/08 A3030 RMK AO2
KDNN 190435Z AUTO 00000KT 10SM CLR 08/08 A3030 RMK AO2
KDNN 190415Z AUTO 00000KT 10SM CLR 08/08 A3031 RMK AO2
KDNN 190355Z AUTO 00000KT 10SM CLR 08/08 A3031 RMK AO2
KDNN 190335Z AUTO 00000KT 10SM CLR 09/09 A3031 RMK AO2
KDNN 190315Z AUTO 00000KT 10SM CLR 10/10 A3031 RMK AO2
KDNN 190255Z AUTO 00000KT 10SM CLR 10/10 A3031 RMK AO2
KDNN 190235Z AUTO 00000KT 10SM CLR 10/10 A3031 RMK AO2
KDNN 190215Z AUTO 00000KT 10SM CLR 10/10 A3030 RMK AO2
KDNN 190155Z AUTO 00000KT 10SM CLR 10/10 A3031 RMK AO2
KDNN 190135Z AUTO 00000KT 10SM CLR 11/11 A3030 RMK AO2
KDNN 190115Z AUTO 00000KT 10SM CLR 11/11 A3030 RMK AO2
KDNN 190055Z AUTO 00000KT 10SM CLR 11/11 A3030 RMK AO2
KDNN 190035Z AUTO 00000KT 10SM CLR 12/11 A3030 RMK AO2
KDNN 190015Z AUTO 00000KT 7SM CLR 12/11 A3029 RMK AO2
KDNN 182355Z AUTO 00000KT 10SM CLR 13/11 A3028 RMK AO2
KDNN 182335Z AUTO 00000KT 7SM CLR 14/11 A3028 RMK AO2
KDNN 182315Z AUTO 00000KT 10SM CLR 16/11 A3028 RMK AO2
KDNN 182255Z AUTO 00000KT 10SM CLR 16/11 A3027 RMK AO2
KDNN 182235Z AUTO 00000KT 10SM CLR 19/11 A3027 RMK AO2
KDNN 182215Z AUTO 00000KT 10SM CLR 20/10 A3027 RMK AO2
KDNN 182155Z AUTO 00000KT 10SM CLR 21/08 A3027 RMK AO2
KDNN 182135Z AUTO 00000KT 10SM CLR 21/08 A3027 RMK AO2
KDNN 182115Z AUTO 16003KT 10SM CLR 21/07 A3027 RMK AO2